Meiou Maru — JD4206 — position and weather

sailwx.info

Track history (hours):
 
Tides and Currents Weather Stations Pressure Air Temp Water Temp Dewpoint Dewpoint Depression Visibility Wind Speed Wind Dir Waves Ship Positions

Meiou Maru

Last reported at 2018-Jan-23 00:00 UTC. Time now 2018-Jan-23 00:15 UTC.
Position N 34°07' E 135°08'.

Length 65 m; draft 3.8 m.

Type: Tanker. MMSI: 431009805.

Date/timePositionNaut miles runAvg speedWind from/ knotsBaromVisibWave heightAir tempDewpointWater temp
2018-Jan-23 00:00N 34°07' E 135°08'0 0.1
2018-Jan-22 23:30N 34°07' E 135°08'0 0.0
2018-Jan-22 23:00N 34°07' E 135°08'0 0.0
2018-Jan-22 22:30N 34°07' E 135°08'0 0.0
2018-Jan-22 22:00N 34°07' E 135°08'0 0.0
2018-Jan-22 21:30N 34°07' E 135°08'0 0.1
2018-Jan-22 21:00N 34°07' E 135°08'0 0.0
2018-Jan-22 20:29N 34°07' E 135°08'0 0.0
2018-Jan-22 20:00N 34°07' E 135°08'0 0.0
2018-Jan-22 19:30N 34°07' E 135°08'0 0.1
2018-Jan-22 19:00N 34°07' E 135°08'0 0.0
2018-Jan-22 18:30N 34°07' E 135°08'0 0.0
2018-Jan-22 18:00N 34°07' E 135°08'0 0.0
2018-Jan-22 17:30N 34°07' E 135°08'0 0.0
2018-Jan-22 17:00N 34°07' E 135°08'0 0.5
2018-Jan-22 16:30N 34°07' E 135°07'510.9
2018-Jan-22 16:00N 34°08' E 135°01'611.6
2018-Jan-22 15:30N 34°08' E 134°54'611.7
2018-Jan-22 15:00N 34°09' E 134°47'611.5
2018-Jan-22 14:30N 34°12' E 134°41'611.0
2018-Jan-22 14:00N 34°16' E 134°36'510.5
2018-Jan-22 13:30N 34°18' E 134°31'510.6
2018-Jan-22 13:00N 34°20' E 134°25'1110.4
2018-Jan-22 11:56N 34°24' E 134°12'7410.0
2018-Jan-22 04:35N 34°07' E 132°46'210.8
2018-Jan-22 04:23N 34°06' E 132°43'410.9
2018-Jan-22 04:00N 34°05' E 132°39'7 9.9
2018-Jan-22 03:20N 34°03' E 132°31'411.5
2018-Jan-22 02:59N 34°05' E 132°27'611.3
2018-Jan-22 02:28N 34°08' E 132°21'511.8
2018-Jan-22 02:00N 34°11' E 132°15'1 2.2
2018-Jan-22 01:30N 34°12' E 132°14'0 0.0
2018-Jan-22 01:00N 34°12' E 132°14'0 0.0
2018-Jan-22 00:30N 34°12' E 132°14'0 0.0
2018-Jan-22 00:00N 34°12' E 132°14'0 0.0
2018-Jan-21 23:30N 34°12' E 132°14'0 0.0
2018-Jan-21 23:00N 34°12' E 132°14'0 0.1
2018-Jan-21 22:30N 34°12' E 132°14'2 3.4
2018-Jan-21 22:00N 34°11' E 132°16'2 4.5
2018-Jan-21 21:29N 34°09' E 132°18'4 8.2
2018-Jan-21 20:58N 34°07' E 132°23'7 9.5
2018-Jan-21 20:14N 34°04' E 132°30'2 8.7
2018-Jan-21 20:00N 34°02' E 132°31'510.3
2018-Jan-21 19:30N 34°04' E 132°37'9510.5
2018-Jan-21 10:26N 34°19' E 134°30'511.2
2018-Jan-21 09:59N 34°16' E 134°36'511.0
2018-Jan-21 09:30N 34°13' E 134°41'610.6
2018-Jan-21 08:58N 34°09' E 134°46'511.0
2018-Jan-21 08:30N 34°08' E 134°52'611.3
2018-Jan-21 08:00N 34°08' E 134°58'510.8
2018-Jan-21 07:30N 34°08' E 135°05'2 4.6
2018-Jan-21 07:00N 34°07' E 135°08'0 0.0
2018-Jan-21 06:30N 34°07' E 135°08'0 0.0
2018-Jan-21 06:00N 34°07' E 135°08'0 0.0
2018-Jan-21 05:30N 34°07' E 135°08'0 0.0
2018-Jan-21 04:59N 34°07' E 135°08'0 0.0
2018-Jan-21 04:30N 34°07' E 135°08'0 0.0
2018-Jan-21 04:00N 34°07' E 135°08'0 0.0
2018-Jan-21 03:30N 34°07' E 135°08'0 0.0
2018-Jan-21 03:00N 34°07' E 135°08'0 0.0
2018-Jan-21 02:29N 34°07' E 135°08'0 0.0
2018-Jan-21 02:00N 34°07' E 135°08'0 0.0
2018-Jan-21 01:30N 34°07' E 135°08'0 0.0
2018-Jan-21 01:00N 34°07' E 135°08'0 0.0
2018-Jan-21 00:30N 34°07' E 135°08'0 0.0
2018-Jan-21 00:00N 34°07' E 135°08'0 0.9
2018-Jan-20 23:30N 34°07' E 135°08'0 0.0
2018-Jan-20 23:00N 34°07' E 135°08'0 0.0
2018-Jan-20 22:30N 34°07' E 135°08'0 0.0
2018-Jan-20 22:00N 34°07' E 135°08'0 0.0
2018-Jan-20 21:30N 34°07' E 135°08'0 0.0
2018-Jan-20 21:00N 34°07' E 135°08'0 0.1
2018-Jan-20 20:30N 34°07' E 135°08'5 9.3
2018-Jan-20 20:00N 34°08' E 135°02'611.1
2018-Jan-20 19:30N 34°08' E 134°55'611.4
2018-Jan-20 19:00N 34°08' E 134°48'612.5
2018-Jan-20 18:30N 34°11' E 134°42'713.8
2018-Jan-20 17:59N 34°16' E 134°36'612.3
2018-Jan-20 17:30N 34°18' E 134°29'612.1
2018-Jan-20 17:00N 34°21' E 134°22'912.4
2018-Jan-20 16:16N 34°24' E 134°12'7510.8
2018-Jan-20 09:23N 34°05' E 132°45'411.5
2018-Jan-20 09:00N 34°03' E 132°41'611.6
2018-Jan-20 08:30N 33°59' E 132°35'710.2
2018-Jan-20 07:50N 33°55' E 132°29'711.0
2018-Jan-20 07:13N 33°50' E 132°22'210.4
2018-Jan-20 06:59N 33°50' E 132°20'611.5
2018-Jan-20 06:26N 33°50' E 132°12'511.1
2018-Jan-20 06:00N 33°47' E 132°07'8 9.7
2018-Jan-20 05:10N 33°49' E 131°58'1112.6
2018-Jan-20 04:19N 33°56' E 131°47'411.5
2018-Jan-20 03:59N 33°59' E 131°45'5 9.1
2018-Jan-20 03:30N 34°02' E 131°49'0 0.0
2018-Jan-20 03:00N 34°02' E 131°49'0 0.0
2018-Jan-20 02:30N 34°02' E 131°49'0 0.0
2018-Jan-20 02:00N 34°02' E 131°49'0 0.0
2018-Jan-20 01:30N 34°02' E 131°49'0 0.0
2018-Jan-20 01:00N 34°02' E 131°49'0 0.0
2018-Jan-20 00:30N 34°02' E 131°49'0 0.0
2018-Jan-20 00:00N 34°02' E 131°49'0 0.0
2018-Jan-19 23:28N 34°02' E 131°49'0 0.0
2018-Jan-19 23:00N 34°02' E 131°49'1 1.7
2018-Jan-19 22:26N 34°02' E 131°48'0 0.0
2018-Jan-19 22:00N 34°02' E 131°48'0 0.2
2018-Jan-19 21:30N 34°01' E 131°48'4 8.5
2018-Jan-19 21:00N 33°58' E 131°45'611.9
2018-Jan-19 20:29N 33°54' E 131°51'612.0
2018-Jan-19 19:59N 33°50' E 131°57'611.9
2018-Jan-19 19:30N 33°46' E 132°02'812.2
2018-Jan-19 18:52N 33°49' E 132°10'1112.4
2018-Jan-19 18:00N 33°51' E 132°23'713.1
2018-Jan-19 17:26N 33°55' E 132°29'612.6
2018-Jan-19 17:00N 33°59' E 132°34'612.3
2018-Jan-19 16:29N 34°03' E 132°41'7210.8
2018-Jan-19 09:48N 34°27' E 134°03'2411.4
2018-Jan-19 07:42N 34°19' E 134°30'412.2
2018-Jan-19 07:24N 34°17' E 134°34'510.7
2018-Jan-19 06:58N 34°14' E 134°39'5 5.3
2018-Jan-19 06:00N 34°10' E 134°42'5 9.4
2018-Jan-19 05:27N 34°06' E 134°46'510.1
2018-Jan-19 04:58N 34°02' E 134°49'510.0
2018-Jan-19 04:30N 33°58' E 134°53'5 9.8
2018-Jan-19 04:00N 33°55' E 134°57'5 9.5
2018-Jan-19 03:30N 33°51' E 135°01'174 9.1
2018-Jan-18 08:23N 34°36' E 138°24'3 8.5
2018-Jan-18 07:58N 34°37' E 138°28'15 8.1
2018-Jan-18 06:04N 34°35' E 138°46'2 9.9
2018-Jan-18 05:53N 34°35' E 138°48'5 9.6
2018-Jan-18 05:22N 34°36' E 138°54'4 8.9
2018-Jan-18 04:53N 34°38' E 138°59'4 9.8
2018-Jan-18 04:30N 34°41' E 139°02'710.1
2018-Jan-18 03:46N 34°47' E 139°06'1210.6
2018-Jan-18 02:39N 34°57' E 139°14'310.4
2018-Jan-18 02:21N 34°58' E 139°18'310.0
2018-Jan-18 02:00N 34°59' E 139°22'510.1
2018-Jan-18 01:29N 35°01' E 139°28'5 9.9
2018-Jan-18 01:00N 35°04' E 139°33'1010.5
2018-Jan-18 00:00N 35°09' E 139°44'111.3
2018-Jan-17 23:56N 35°10' E 139°44'  
Track history (hours):
 
Tides and Currents Weather Stations Pressure Air Temp Water Temp Dewpoint Dewpoint Depression Visibility Wind Speed Wind Dir Waves Ship Positions

Meiou Maru

Last reported at 2018-Jan-23 00:00 UTC. Time now 2018-Jan-23 00:15 UTC.
Position N 34°07' E 135°08'.

Length 65 m; draft 3.8 m.

Type: Tanker. MMSI: 431009805.

Date/timePositionNaut miles runAvg speedWind from/ knotsBaromVisibWave heightAir tempDewpointWater temp
2018-Jan-23 00:00N 34°07' E 135°08'0 0.1
2018-Jan-22 23:30N 34°07' E 135°08'0 0.0
2018-Jan-22 23:00N 34°07' E 135°08'0 0.0
2018-Jan-22 22:30N 34°07' E 135°08'0 0.0
2018-Jan-22 22:00N 34°07' E 135°08'0 0.0
2018-Jan-22 21:30N 34°07' E 135°08'0 0.1
2018-Jan-22 21:00N 34°07' E 135°08'0 0.0
2018-Jan-22 20:29N 34°07' E 135°08'0 0.0
2018-Jan-22 20:00N 34°07' E 135°08'0 0.0
2018-Jan-22 19:30N 34°07' E 135°08'0 0.1
2018-Jan-22 19:00N 34°07' E 135°08'0 0.0
2018-Jan-22 18:30N 34°07' E 135°08'0 0.0
2018-Jan-22 18:00N 34°07' E 135°08'0 0.0
2018-Jan-22 17:30N 34°07' E 135°08'0 0.0
2018-Jan-22 17:00N 34°07' E 135°08'0 0.5
2018-Jan-22 16:30N 34°07' E 135°07'510.9
2018-Jan-22 16:00N 34°08' E 135°01'611.6
2018-Jan-22 15:30N 34°08' E 134°54'611.7
2018-Jan-22 15:00N 34°09' E 134°47'611.5
2018-Jan-22 14:30N 34°12' E 134°41'611.0
2018-Jan-22 14:00N 34°16' E 134°36'510.5
2018-Jan-22 13:30N 34°18' E 134°31'510.6
2018-Jan-22 13:00N 34°20' E 134°25'1110.4
2018-Jan-22 11:56N 34°24' E 134°12'7410.0
2018-Jan-22 04:35N 34°07' E 132°46'210.8
2018-Jan-22 04:23N 34°06' E 132°43'410.9
2018-Jan-22 04:00N 34°05' E 132°39'7 9.9
2018-Jan-22 03:20N 34°03' E 132°31'411.5
2018-Jan-22 02:59N 34°05' E 132°27'611.3
2018-Jan-22 02:28N 34°08' E 132°21'511.8
2018-Jan-22 02:00N 34°11' E 132°15'1 2.2
2018-Jan-22 01:30N 34°12' E 132°14'0 0.0
2018-Jan-22 01:00N 34°12' E 132°14'0 0.0
2018-Jan-22 00:30N 34°12' E 132°14'0 0.0
2018-Jan-22 00:00N 34°12' E 132°14'0 0.0
2018-Jan-21 23:30N 34°12' E 132°14'0 0.0
2018-Jan-21 23:00N 34°12' E 132°14'0 0.1
2018-Jan-21 22:30N 34°12' E 132°14'2 3.4
2018-Jan-21 22:00N 34°11' E 132°16'2 4.5
2018-Jan-21 21:29N 34°09' E 132°18'4 8.2
2018-Jan-21 20:58N 34°07' E 132°23'7 9.5
2018-Jan-21 20:14N 34°04' E 132°30'2 8.7
2018-Jan-21 20:00N 34°02' E 132°31'510.3
2018-Jan-21 19:30N 34°04' E 132°37'9510.5
2018-Jan-21 10:26N 34°19' E 134°30'511.2
2018-Jan-21 09:59N 34°16' E 134°36'511.0
2018-Jan-21 09:30N 34°13' E 134°41'610.6
2018-Jan-21 08:58N 34°09' E 134°46'511.0
2018-Jan-21 08:30N 34°08' E 134°52'611.3
2018-Jan-21 08:00N 34°08' E 134°58'510.8
2018-Jan-21 07:30N 34°08' E 135°05'2 4.6
2018-Jan-21 07:00N 34°07' E 135°08'0 0.0
2018-Jan-21 06:30N 34°07' E 135°08'0 0.0
2018-Jan-21 06:00N 34°07' E 135°08'0 0.0
2018-Jan-21 05:30N 34°07' E 135°08'0 0.0
2018-Jan-21 04:59N 34°07' E 135°08'0 0.0
2018-Jan-21 04:30N 34°07' E 135°08'0 0.0
2018-Jan-21 04:00N 34°07' E 135°08'0 0.0
2018-Jan-21 03:30N 34°07' E 135°08'0 0.0
2018-Jan-21 03:00N 34°07' E 135°08'0 0.0
2018-Jan-21 02:29N 34°07' E 135°08'0 0.0
2018-Jan-21 02:00N 34°07' E 135°08'0 0.0
2018-Jan-21 01:30N 34°07' E 135°08'0 0.0
2018-Jan-21 01:00N 34°07' E 135°08'0 0.0
2018-Jan-21 00:30N 34°07' E 135°08'0 0.0
2018-Jan-21 00:00N 34°07' E 135°08'0 0.9
2018-Jan-20 23:30N 34°07' E 135°08'0 0.0
2018-Jan-20 23:00N 34°07' E 135°08'0 0.0
2018-Jan-20 22:30N 34°07' E 135°08'0 0.0
2018-Jan-20 22:00N 34°07' E 135°08'0 0.0
2018-Jan-20 21:30N 34°07' E 135°08'0 0.0
2018-Jan-20 21:00N 34°07' E 135°08'0 0.1
2018-Jan-20 20:30N 34°07' E 135°08'5 9.3
2018-Jan-20 20:00N 34°08' E 135°02'611.1
2018-Jan-20 19:30N 34°08' E 134°55'611.4
2018-Jan-20 19:00N 34°08' E 134°48'612.5
2018-Jan-20 18:30N 34°11' E 134°42'713.8
2018-Jan-20 17:59N 34°16' E 134°36'612.3
2018-Jan-20 17:30N 34°18' E 134°29'612.1
2018-Jan-20 17:00N 34°21' E 134°22'912.4
2018-Jan-20 16:16N 34°24' E 134°12'7510.8
2018-Jan-20 09:23N 34°05' E 132°45'411.5
2018-Jan-20 09:00N 34°03' E 132°41'611.6
2018-Jan-20 08:30N 33°59' E 132°35'710.2
2018-Jan-20 07:50N 33°55' E 132°29'711.0
2018-Jan-20 07:13N 33°50' E 132°22'210.4
2018-Jan-20 06:59N 33°50' E 132°20'611.5
2018-Jan-20 06:26N 33°50' E 132°12'511.1
2018-Jan-20 06:00N 33°47' E 132°07'8 9.7
2018-Jan-20 05:10N 33°49' E 131°58'1112.6
2018-Jan-20 04:19N 33°56' E 131°47'411.5
2018-Jan-20 03:59N 33°59' E 131°45'5 9.1
2018-Jan-20 03:30N 34°02' E 131°49'0 0.0
2018-Jan-20 03:00N 34°02' E 131°49'0 0.0
2018-Jan-20 02:30N 34°02' E 131°49'0 0.0
2018-Jan-20 02:00N 34°02' E 131°49'0 0.0
2018-Jan-20 01:30N 34°02' E 131°49'0 0.0
2018-Jan-20 01:00N 34°02' E 131°49'0 0.0
2018-Jan-20 00:30N 34°02' E 131°49'0 0.0
2018-Jan-20 00:00N 34°02' E 131°49'0 0.0
2018-Jan-19 23:28N 34°02' E 131°49'0 0.0
2018-Jan-19 23:00N 34°02' E 131°49'1 1.7
2018-Jan-19 22:26N 34°02' E 131°48'0 0.0
2018-Jan-19 22:00N 34°02' E 131°48'0 0.2
2018-Jan-19 21:30N 34°01' E 131°48'4 8.5
2018-Jan-19 21:00N 33°58' E 131°45'611.9
2018-Jan-19 20:29N 33°54' E 131°51'612.0
2018-Jan-19 19:59N 33°50' E 131°57'611.9
2018-Jan-19 19:30N 33°46' E 132°02'812.2
2018-Jan-19 18:52N 33°49' E 132°10'1112.4
2018-Jan-19 18:00N 33°51' E 132°23'713.1
2018-Jan-19 17:26N 33°55' E 132°29'612.6
2018-Jan-19 17:00N 33°59' E 132°34'612.3
2018-Jan-19 16:29N 34°03' E 132°41'7210.8
2018-Jan-19 09:48N 34°27' E 134°03'2411.4
2018-Jan-19 07:42N 34°19' E 134°30'412.2
2018-Jan-19 07:24N 34°17' E 134°34'510.7
2018-Jan-19 06:58N 34°14' E 134°39'5 5.3
2018-Jan-19 06:00N 34°10' E 134°42'5 9.4
2018-Jan-19 05:27N 34°06' E 134°46'510.1
2018-Jan-19 04:58N 34°02' E 134°49'510.0
2018-Jan-19 04:30N 33°58' E 134°53'5 9.8
2018-Jan-19 04:00N 33°55' E 134°57'5 9.5
2018-Jan-19 03:30N 33°51' E 135°01'174 9.1
2018-Jan-18 08:23N 34°36' E 138°24'3 8.5
2018-Jan-18 07:58N 34°37' E 138°28'15 8.1
2018-Jan-18 06:04N 34°35' E 138°46'2 9.9
2018-Jan-18 05:53N 34°35' E 138°48'5 9.6
2018-Jan-18 05:22N 34°36' E 138°54'4 8.9
2018-Jan-18 04:53N 34°38' E 138°59'4 9.8
2018-Jan-18 04:30N 34°41' E 139°02'710.1
2018-Jan-18 03:46N 34°47' E 139°06'1210.6
2018-Jan-18 02:39N 34°57' E 139°14'310.4
2018-Jan-18 02:21N 34°58' E 139°18'310.0
2018-Jan-18 02:00N 34°59' E 139°22'510.1
2018-Jan-18 01:29N 35°01' E 139°28'5 9.9
2018-Jan-18 01:00N 35°04' E 139°33'1010.5
2018-Jan-18 00:00N 35°09' E 139°44'111.3
2018-Jan-17 23:56N 35°10' E 139°44'  

Dump ship's entire track history